createdAt,value
2022-10-12T00:02:54.635Z,82.90
2022-10-12T00:08:00.564Z,82.86
2022-10-12T00:13:07.007Z,82.96
2022-10-12T00:18:12.982Z,83.01
2022-10-12T00:23:19.111Z,83.27
2022-10-12T00:28:25.108Z,83.32
2022-10-12T00:33:31.058Z,83.38
2022-10-12T00:38:36.884Z,83.43
2022-10-12T00:43:45.161Z,83.25
2022-10-12T00:48:55.304Z,83.37
2022-10-12T00:54:06.193Z,83.41
2022-10-12T00:59:22.053Z,83.56
2022-10-12T01:04:29.721Z,83.82
2022-10-12T01:09:35.560Z,83.97
2022-10-12T01:14:41.395Z,83.89
2022-10-12T01:20:09.875Z,83.84
2022-10-12T01:25:34.801Z,83.87
2022-10-12T01:30:43.786Z,83.89
2022-10-12T01:35:58.612Z,83.88
2022-10-12T01:41:11.011Z,83.95
2022-10-12T01:46:41.774Z,84.21
2022-10-12T01:52:10.671Z,84.32
2022-10-12T01:57:24.480Z,84.41
2022-10-12T02:02:38.990Z,84.54
2022-10-12T02:07:50.079Z,84.69
2022-10-12T02:12:58.878Z,84.78
2022-10-12T02:18:06.611Z,84.74
2022-10-12T02:23:13.134Z,84.74
2022-10-12T02:28:23.243Z,84.79
2022-10-12T02:33:35.754Z,84.91
2022-10-12T02:38:47.237Z,84.96
2022-10-12T02:43:56.866Z,85.17
2022-10-12T02:49:05.199Z,84.99
2022-10-12T02:54:11.219Z,84.95
2022-10-12T02:59:19.026Z,85.06
2022-10-12T03:04:24.803Z,85.13
2022-10-12T03:09:30.818Z,85.22
2022-10-12T03:14:37.580Z,85.35
2022-10-12T03:19:43.606Z,85.52
2022-10-12T03:24:49.785Z,85.66
2022-10-12T03:29:55.591Z,85.62
2022-10-12T03:35:01.454Z,85.62
2022-10-12T03:40:10.446Z,85.77
2022-10-12T03:45:16.540Z,85.90
2022-10-12T03:50:22.392Z,86.01
2022-10-12T03:55:28.568Z,85.88
2022-10-12T04:00:34.357Z,85.76
2022-10-12T04:05:40.891Z,85.88
2022-10-12T04:10:47.123Z,86.02
2022-10-12T04:20:22.471Z,85.97
2022-10-12T04:25:30.219Z,86.07
2022-10-12T04:30:36.484Z,86.13
2022-10-12T04:35:42.459Z,86.07
2022-10-12T04:40:50.007Z,86.11
2022-10-12T04:46:00.306Z,86.02
2022-10-12T04:51:06.605Z,86.09
2022-10-12T04:56:12.439Z,86.22
2022-10-12T05:01:18.526Z,86.22
2022-10-12T05:06:24.568Z,86.35
2022-10-12T05:11:30.813Z,86.42
2022-10-12T05:16:37.120Z,86.47
2022-10-12T05:21:42.886Z,86.35
2022-10-12T05:26:51.611Z,86.31
2022-10-12T05:32:01.477Z,86.35
2022-10-12T05:37:11.450Z,86.41
2022-10-12T05:42:18.964Z,86.35
2022-10-12T05:47:24.851Z,86.16
2022-10-12T05:52:30.863Z,86.36
2022-10-12T05:57:37.778Z,86.39
2022-10-12T06:02:43.939Z,86.43
2022-10-12T06:07:50.216Z,86.21
2022-10-12T06:12:56.315Z,85.98
2022-10-12T06:18:04.653Z,85.18
2022-10-12T06:23:10.481Z,82.87
2022-10-12T06:28:17.904Z,78.84
2022-10-12T06:33:24.760Z,75.92
2022-10-12T06:38:30.775Z,73.07
2022-10-12T06:43:36.585Z,72.60
2022-10-12T06:48:42.533Z,72.74
2022-10-12T06:53:48.348Z,73.44
2022-10-12T06:58:56.921Z,71.70
2022-10-12T07:04:02.734Z,68.64
2022-10-12T07:09:08.571Z,68.49
2022-10-12T07:14:14.489Z,67.11
2022-10-12T07:19:20.461Z,63.13
2022-10-12T07:24:35.160Z,59.12
2022-10-12T07:29:41.293Z,54.21
2022-10-12T07:34:47.453Z,49.01
2022-10-12T07:39:57.368Z,45.44
2022-10-12T07:45:03.686Z,42.63
2022-10-12T07:50:10.623Z,40.40
2022-10-12T07:55:16.998Z,38.36
2022-10-12T08:00:22.932Z,36.49
2022-10-12T08:05:28.945Z,34.44
2022-10-12T08:10:37.889Z,34.12
2022-10-12T08:15:50.374Z,33.46
2022-10-12T08:20:56.926Z,32.45
2022-10-12T08:26:03.585Z,31.61
2022-10-12T08:31:12.144Z,31.66
2022-10-12T08:36:18.131Z,32.19
2022-10-12T08:41:40.441Z,32.72
2022-10-12T08:46:47.107Z,32.24
2022-10-12T08:51:55.390Z,31.99
2022-10-12T08:57:01.305Z,31.22
2022-10-12T09:02:25.044Z,29.98
2022-10-12T09:07:35.284Z,29.64
2022-10-12T09:12:50.636Z,29.14
2022-10-12T09:17:58.792Z,28.81
2022-10-12T09:23:16.746Z,28.81
2022-10-12T09:28:27.928Z,28.78
2022-10-12T09:33:41.297Z,28.60
2022-10-12T09:38:47.588Z,28.96
2022-10-12T09:43:59.205Z,28.18
2022-10-12T09:49:05.345Z,28.08
2022-10-12T09:54:20.068Z,28.59
2022-10-12T09:59:30.775Z,28.54
2022-10-12T10:04:37.025Z,28.72
2022-10-12T10:09:43.169Z,29.18
2022-10-12T10:14:52.836Z,29.68
2022-10-12T10:20:02.350Z,29.11
2022-10-12T10:25:19.255Z,30.40
2022-10-12T10:30:33.911Z,30.56
2022-10-12T10:35:52.635Z,31.32
2022-10-12T10:41:00.362Z,31.67
2022-10-12T10:46:06.520Z,32.31
2022-10-12T10:51:13.168Z,32.66
2022-10-12T10:56:23.648Z,34.15
2022-10-12T11:01:40.049Z,35.58
2022-10-12T11:06:49.320Z,35.79
2022-10-12T11:12:01.008Z,37.11
2022-10-12T11:17:12.925Z,36.73
2022-10-12T11:22:23.793Z,37.50
2022-10-12T11:27:36.042Z,38.58
2022-10-12T11:32:47.134Z,38.14
2022-10-12T11:37:58.184Z,39.22
2022-10-12T11:43:11.567Z,39.62
2022-10-12T11:48:26.871Z,38.71
2022-10-12T11:53:41.533Z,38.62
2022-10-12T11:59:00.650Z,38.83
2022-10-12T12:04:41.579Z,38.25
2022-10-12T12:09:51.520Z,38.81
2022-10-12T12:15:19.626Z,39.42
2022-10-12T12:21:01.834Z,38.37
2022-10-12T12:26:17.024Z,39.47
2022-10-12T12:31:30.555Z,39.44
2022-10-12T12:36:40.382Z,39.74
2022-10-12T12:41:57.726Z,40.68
2022-10-12T12:47:47.941Z,41.33
2022-10-12T12:53:26.641Z,41.03
2022-10-12T12:59:04.154Z,40.15
2022-10-12T13:04:38.616Z,41.08
2022-10-12T13:10:01.838Z,41.62
2022-10-12T13:15:38.574Z,41.67
2022-10-12T13:20:46.738Z,42.52
2022-10-12T13:25:58.787Z,42.13
2022-10-12T13:31:09.629Z,43.53
2022-10-12T13:36:23.928Z,44.03
2022-10-12T13:41:31.881Z,44.03
2022-10-12T13:46:42.202Z,44.64
2022-10-12T13:51:49.987Z,45.29
2022-10-12T13:56:59.657Z,45.42
2022-10-12T14:02:18.750Z,47.03
2022-10-12T14:07:28.607Z,47.03
2022-10-12T14:12:37.538Z,49.02
2022-10-12T14:17:53.111Z,49.63
2022-10-12T14:23:01.154Z,49.65
2022-10-12T14:28:19.446Z,49.76
2022-10-12T14:33:26.846Z,50.64
2022-10-12T14:38:42.075Z,51.08
2022-10-12T14:44:09.652Z,51.30
2022-10-12T14:49:20.157Z,51.83
2022-10-12T14:54:26.331Z,52.08
2022-10-12T14:59:32.240Z,52.82
2022-10-12T15:04:38.016Z,53.93
2022-10-12T15:09:44.463Z,55.46
2022-10-12T15:14:51.776Z,56.11
2022-10-12T15:19:57.548Z,57.41
2022-10-12T15:25:06.389Z,58.77
2022-10-12T15:30:14.286Z,59.86
2022-10-12T15:35:23.887Z,61.15
2022-10-12T15:40:31.467Z,62.29
2022-10-12T15:45:39.977Z,62.93
2022-10-12T15:50:48.553Z,63.56
2022-10-12T15:55:55.815Z,63.96
2022-10-12T16:01:02.754Z,64.69
2022-10-12T16:06:09.091Z,65.89
2022-10-12T16:11:16.809Z,66.78
2022-10-12T16:16:22.702Z,67.67
2022-10-12T16:21:28.745Z,67.97
2022-10-12T16:26:34.681Z,68.59
2022-10-12T16:36:46.566Z,69.75
2022-10-12T16:41:53.146Z,70.37
2022-10-12T16:46:59.817Z,70.66
2022-10-12T16:52:06.323Z,70.35
2022-10-12T16:57:12.351Z,69.65
2022-10-12T17:02:19.480Z,69.31
2022-10-12T17:07:26.097Z,69.35
2022-10-12T17:12:32.029Z,69.68
2022-10-12T17:17:37.963Z,70.25
2022-10-12T17:22:43.679Z,70.44
2022-10-12T17:27:50.640Z,70.54
2022-10-12T17:32:56.522Z,70.89
2022-10-12T17:38:02.333Z,71.20
2022-10-12T17:43:08.205Z,71.74
2022-10-12T17:48:15.348Z,72.14
2022-10-12T17:53:21.706Z,72.53
2022-10-12T17:58:27.902Z,72.82
2022-10-12T18:03:33.786Z,73.13
2022-10-12T18:08:40.215Z,73.76
2022-10-12T18:13:49.562Z,74.08
2022-10-12T18:18:55.874Z,74.36
2022-10-12T18:24:06.911Z,74.44
2022-10-12T18:29:13.508Z,74.80
2022-10-12T18:34:19.474Z,75.32
2022-10-12T18:39:25.484Z,75.71
2022-10-12T18:44:31.408Z,75.92
2022-10-12T18:49:37.204Z,76.07
2022-10-12T18:54:45.041Z,76.23
2022-10-12T18:59:52.876Z,76.46
2022-10-12T19:04:58.923Z,76.66
2022-10-12T19:10:09.477Z,76.91
2022-10-12T19:15:16.718Z,77.14
2022-10-12T19:20:22.656Z,77.63
2022-10-12T19:25:28.681Z,77.97
2022-10-12T19:30:38.981Z,78.31
2022-10-12T19:35:45.383Z,78.63
2022-10-12T19:40:51.925Z,78.94
2022-10-12T19:46:01.730Z,79.22
2022-10-12T19:51:10.917Z,79.11
2022-10-12T19:56:20.766Z,79.10
2022-10-12T20:01:29.546Z,79.18
2022-10-12T20:06:36.416Z,79.09
2022-10-12T20:11:42.289Z,78.98
2022-10-12T20:16:48.105Z,78.82
2022-10-12T20:21:53.976Z,78.76
2022-10-12T20:26:59.934Z,78.49
2022-10-12T20:32:06.426Z,78.27
2022-10-12T20:37:14.393Z,78.65
2022-10-12T20:42:22.068Z,79.00
2022-10-12T20:47:29.033Z,79.11
2022-10-12T20:52:34.981Z,79.30
2022-10-12T20:57:40.976Z,79.19
2022-10-12T21:02:46.660Z,79.14
2022-10-12T21:07:52.481Z,79.45
2022-10-12T21:12:58.302Z,79.48
2022-10-12T21:18:04.168Z,79.70
2022-10-12T21:23:10.318Z,80.16
2022-10-12T21:28:16.505Z,80.34
2022-10-12T21:33:22.861Z,80.60
2022-10-12T21:38:31.602Z,80.63
2022-10-12T21:43:37.623Z,80.53
2022-10-12T21:48:43.752Z,80.45
2022-10-12T21:53:50.578Z,80.30
2022-10-12T21:58:58.226Z,80.26
2022-10-12T22:04:06.841Z,80.57
2022-10-12T22:09:16.664Z,80.50
2022-10-12T22:14:22.574Z,80.72
2022-10-12T22:19:28.586Z,80.99
2022-10-12T22:24:34.400Z,81.04
2022-10-12T22:29:40.245Z,80.89
2022-10-12T22:34:46.087Z,80.95
2022-10-12T22:39:51.897Z,81.19
2022-10-12T22:44:57.871Z,80.79
2022-10-12T22:50:03.767Z,80.97
2022-10-12T22:55:10.885Z,81.29
2022-10-12T23:00:18.094Z,81.70
2022-10-12T23:05:23.925Z,81.88
2022-10-12T23:10:30.377Z,82.13
2022-10-12T23:15:36.309Z,82.34
2022-10-12T23:20:42.817Z,82.76
2022-10-12T23:25:48.954Z,83.06
2022-10-12T23:30:54.866Z,83.24
2022-10-12T23:36:03.216Z,83.31
2022-10-12T23:41:09.631Z,83.76
2022-10-12T23:46:15.997Z,83.97
2022-10-12T23:51:21.851Z,83.78
2022-10-12T23:56:27.966Z,83.66
